Potengi, Brazil
Current Conditions -  °F | °C
As of 3:00 AM on Thursday 23 Oct 2014 (Local Time) from SBJU Reporting Station
Moderate Rain Moderate Rain  
Wind Chill: 81°   Ceiling: Unl
Heat Index: 85°   Visibility: 6mi
Dew Point: 72°   Wind: 6mph
Humidity: 74%   Direction: 80°E
Pressure: 30.03"   Gusts: NA
Location:  7.09°S, 40.03°W
Report Text: SBJU 230600Z 08005KT 9999 RA SCT020 FEW022TCU 27/22 Q1017
Loading
Personal Weather Stations






























Interactive Weather Map
Tropical Storm Tracking
New forecast layout! Learn more

10-Day Weather Forecast

Advertisements
Track Severe Weather on mobile